createdAt,value
2022-12-09T00:00:10.635Z,65.21
2022-12-09T00:01:33.671Z,65.13
2022-12-09T00:02:55.299Z,65.05
2022-12-09T00:04:17.658Z,65.09
2022-12-09T00:05:41.251Z,65.00
2022-12-09T00:07:03.131Z,65.23
2022-12-09T00:08:27.155Z,65.13
2022-12-09T00:09:49.339Z,65.13
2022-12-09T00:11:10.618Z,65.00
2022-12-09T00:12:33.601Z,65.28
2022-12-09T00:13:58.440Z,65.12
2022-12-09T00:15:20.626Z,64.78
2022-12-09T00:16:42.595Z,64.98
2022-12-09T00:18:06.230Z,64.99
2022-12-09T00:19:28.463Z,65.00
2022-12-09T00:20:50.133Z,64.88
2022-12-09T00:22:12.325Z,64.78
2022-12-09T00:23:34.178Z,64.82
2022-12-09T00:24:56.349Z,64.91
2022-12-09T00:26:20.108Z,64.81
2022-12-09T00:27:43.712Z,65.09
2022-12-09T00:29:06.275Z,65.25
2022-12-09T00:30:28.620Z,65.11
2022-12-09T00:31:50.312Z,65.38
2022-12-09T00:33:11.087Z,65.20
2022-12-09T00:34:33.099Z,65.19
2022-12-09T00:35:55.223Z,65.22
2022-12-09T00:37:17.527Z,65.26
2022-12-09T00:38:38.218Z,65.34
2022-12-09T00:40:00.115Z,65.29
2022-12-09T00:41:24.678Z,65.09
2022-12-09T00:42:47.874Z,65.27
2022-12-09T00:44:09.668Z,65.20
2022-12-09T00:45:30.254Z,65.17
2022-12-09T00:46:52.280Z,65.18
2022-12-09T00:48:14.293Z,65.20
2022-12-09T00:49:35.773Z,65.09
2022-12-09T00:50:57.775Z,65.21
2022-12-09T00:52:19.254Z,65.12
2022-12-09T00:53:40.773Z,64.98
2022-12-09T00:55:02.807Z,65.14
2022-12-09T00:56:28.711Z,65.12
2022-12-09T00:57:52.237Z,65.00
2022-12-09T00:59:12.970Z,65.10
2022-12-09T01:00:34.957Z,65.14
2022-12-09T01:01:57.081Z,65.14
2022-12-09T01:03:19.901Z,65.19
2022-12-09T01:04:42.434Z,65.10
2022-12-09T01:06:09.659Z,65.13
2022-12-09T01:07:31.643Z,65.12
2022-12-09T01:08:53.863Z,65.12
2022-12-09T01:10:15.970Z,65.27
2022-12-09T01:11:37.145Z,65.22
2022-12-09T01:13:01.672Z,65.21
2022-12-09T01:14:23.580Z,65.23
2022-12-09T01:15:44.618Z,65.24
2022-12-09T01:17:06.873Z,65.24
2022-12-09T01:18:27.821Z,65.45
2022-12-09T01:19:49.358Z,65.35
2022-12-09T01:21:10.146Z,65.37
2022-12-09T01:22:32.116Z,65.43
2022-12-09T01:23:53.055Z,65.46
2022-12-09T01:25:16.137Z,65.42
2022-12-09T01:26:39.253Z,65.41
2022-12-09T01:28:02.417Z,65.37
2022-12-09T01:29:24.114Z,65.25
2022-12-09T01:30:45.161Z,65.21
2022-12-09T01:32:07.373Z,65.25
2022-12-09T01:33:28.858Z,65.21
2022-12-09T01:34:51.239Z,65.19
2022-12-09T01:36:13.435Z,65.28
2022-12-09T01:37:36.724Z,65.24
2022-12-09T01:39:00.014Z,65.25
2022-12-09T01:40:20.799Z,65.16
2022-12-09T01:41:52.900Z,65.24
2022-12-09T01:43:19.808Z,65.23
2022-12-09T01:45:01.566Z,65.34
2022-12-09T01:46:23.593Z,65.42
2022-12-09T01:47:45.893Z,65.28
2022-12-09T01:49:08.698Z,65.30
2022-12-09T01:50:30.645Z,65.23
2022-12-09T01:52:02.935Z,65.05
2022-12-09T01:53:25.652Z,65.21
2022-12-09T01:54:48.514Z,65.26
2022-12-09T01:56:12.705Z,65.25
2022-12-09T01:57:33.132Z,65.18
2022-12-09T01:58:58.657Z,65.27
2022-12-09T02:00:20.364Z,65.18
2022-12-09T02:01:45.805Z,65.40
2022-12-09T02:03:07.206Z,65.35
2022-12-09T02:04:30.209Z,65.27
2022-12-09T02:05:56.848Z,65.36
2022-12-09T02:07:19.288Z,65.20
2022-12-09T02:08:41.988Z,65.36
2022-12-09T02:10:04.338Z,65.16
2022-12-09T02:11:40.928Z,65.31
2022-12-09T02:13:05.929Z,65.20
2022-12-09T02:14:32.963Z,65.26
2022-12-09T02:15:55.183Z,65.34
2022-12-09T02:17:27.074Z,65.40
2022-12-09T02:18:52.861Z,65.46
2022-12-09T02:20:18.010Z,65.40
2022-12-09T02:21:43.932Z,65.42
2022-12-09T02:23:07.752Z,65.28
2022-12-09T02:24:36.438Z,65.31
2022-12-09T02:26:06.267Z,65.47
2022-12-09T02:27:31.352Z,65.31
2022-12-09T02:29:08.703Z,65.42
2022-12-09T02:30:34.720Z,65.36
2022-12-09T02:32:12.464Z,65.27
2022-12-09T02:33:41.350Z,65.20
2022-12-09T02:35:11.377Z,65.11
2022-12-09T02:36:42.459Z,65.16
2022-12-09T02:38:09.152Z,65.04
2022-12-09T02:39:37.207Z,65.13
2022-12-09T02:41:00.935Z,65.08
2022-12-09T02:42:24.695Z,65.05
2022-12-09T02:43:50.292Z,65.14
2022-12-09T02:45:20.886Z,65.04
2022-12-09T02:46:48.223Z,65.11
2022-12-09T02:48:11.261Z,64.99
2022-12-09T02:49:42.122Z,64.99
2022-12-09T02:51:10.901Z,64.96
2022-12-09T02:52:39.835Z,64.84
2022-12-09T02:54:06.839Z,64.80
2022-12-09T02:55:31.027Z,64.95
2022-12-09T02:56:54.444Z,64.89
2022-12-09T02:58:16.764Z,64.93
2022-12-09T02:59:37.929Z,64.96
2022-12-09T03:00:59.921Z,64.94
2022-12-09T03:02:26.540Z,64.96
2022-12-09T03:03:48.573Z,64.96
2022-12-09T03:05:14.345Z,65.01
2022-12-09T03:06:40.297Z,64.96
2022-12-09T03:08:07.347Z,65.16
2022-12-09T03:09:32.195Z,64.95
2022-12-09T03:10:56.152Z,64.98
2022-12-09T03:12:24.015Z,65.04
2022-12-09T03:13:51.759Z,65.12
2022-12-09T03:15:14.432Z,65.09
2022-12-09T03:16:37.641Z,65.25
2022-12-09T03:17:59.090Z,65.14
2022-12-09T03:19:23.462Z,65.26
2022-12-09T03:20:45.662Z,65.26
2022-12-09T03:22:10.477Z,65.21
2022-12-09T03:23:36.290Z,65.35
2022-12-09T03:25:00.592Z,65.46
2022-12-09T03:26:23.536Z,65.46
2022-12-09T03:27:48.104Z,65.66
2022-12-09T03:29:12.650Z,65.75
2022-12-09T03:30:35.010Z,65.75
2022-12-09T03:31:58.194Z,65.67
2022-12-09T03:33:21.375Z,65.96
2022-12-09T03:34:46.039Z,65.96
2022-12-09T03:36:11.250Z,65.91
2022-12-09T03:37:33.792Z,65.87
2022-12-09T03:38:56.262Z,65.85
2022-12-09T03:40:24.289Z,65.94
2022-12-09T03:41:47.676Z,65.95
2022-12-09T03:43:31.825Z,65.97
2022-12-09T03:44:56.859Z,66.13
2022-12-09T03:46:26.005Z,66.17
2022-12-09T03:47:47.577Z,66.31
2022-12-09T03:49:09.824Z,66.17
2022-12-09T03:50:34.362Z,66.15
2022-12-09T03:51:58.118Z,66.22
2022-12-09T03:53:22.671Z,66.20
2022-12-09T03:54:45.348Z,66.16
2022-12-09T03:56:10.346Z,66.12
2022-12-09T03:57:32.463Z,66.10
2022-12-09T03:58:54.427Z,66.16
2022-12-09T04:00:18.861Z,65.89
2022-12-09T04:01:41.097Z,65.95
2022-12-09T04:03:02.991Z,65.91
2022-12-09T04:04:32.247Z,65.95
2022-12-09T04:05:52.991Z,66.02
2022-12-09T04:07:14.674Z,65.90
2022-12-09T04:08:38.114Z,66.05
2022-12-09T04:09:58.950Z,65.92
2022-12-09T04:11:20.453Z,65.78
2022-12-09T04:12:42.244Z,65.85
2022-12-09T04:14:04.877Z,65.69
2022-12-09T04:15:26.927Z,65.72
2022-12-09T04:16:47.895Z,65.81
2022-12-09T04:18:10.774Z,65.73
2022-12-09T04:19:32.889Z,65.63
2022-12-09T04:20:55.166Z,65.66
2022-12-09T04:22:15.693Z,65.62
2022-12-09T04:23:43.042Z,65.45
2022-12-09T04:25:05.237Z,65.35
2022-12-09T04:26:26.806Z,65.27
2022-12-09T04:27:48.627Z,65.30
2022-12-09T04:29:12.690Z,65.31
2022-12-09T04:30:33.501Z,65.27
2022-12-09T04:31:55.653Z,65.20
2022-12-09T04:33:16.501Z,65.19
2022-12-09T04:34:39.664Z,65.12
2022-12-09T04:36:04.354Z,65.20
2022-12-09T04:37:26.241Z,65.02
2022-12-09T04:38:48.462Z,65.07
2022-12-09T04:40:11.357Z,64.95
2022-12-09T04:41:33.610Z,64.97
2022-12-09T04:42:54.862Z,64.91
2022-12-09T04:44:16.903Z,64.83
2022-12-09T04:45:37.892Z,64.91
2022-12-09T04:46:59.495Z,64.85
2022-12-09T04:48:20.443Z,64.93
2022-12-09T04:49:42.102Z,65.04
2022-12-09T04:51:03.945Z,64.76
2022-12-09T04:52:25.277Z,64.91
2022-12-09T04:53:47.157Z,64.94
2022-12-09T04:55:10.422Z,65.08
2022-12-09T04:56:31.503Z,65.03
2022-12-09T04:57:55.491Z,65.22
2022-12-09T04:59:18.023Z,65.08
2022-12-09T05:00:38.822Z,65.24
2022-12-09T05:02:00.992Z,65.24
2022-12-09T05:03:21.897Z,65.38
2022-12-09T05:04:45.434Z,65.39
2022-12-09T05:06:13.320Z,65.30
2022-12-09T05:07:35.663Z,65.62
2022-12-09T05:08:56.502Z,65.58
2022-12-09T05:10:20.358Z,65.63
2022-12-09T05:11:42.722Z,65.71
2022-12-09T05:13:03.957Z,65.67
2022-12-09T05:14:25.813Z,65.85
2022-12-09T05:15:46.523Z,65.96
2022-12-09T05:17:08.761Z,65.86
2022-12-09T05:18:31.463Z,66.16
2022-12-09T05:19:53.213Z,66.11
2022-12-09T05:21:15.361Z,66.23
2022-12-09T05:22:36.953Z,66.35
2022-12-09T05:23:58.240Z,66.52
2022-12-09T05:25:21.052Z,66.64
2022-12-09T05:26:41.888Z,66.63
2022-12-09T05:28:03.842Z,67.01
2022-12-09T05:29:25.962Z,66.91
2022-12-09T05:30:47.309Z,67.16
2022-12-09T05:32:09.815Z,67.24
2022-12-09T05:33:31.983Z,67.24
2022-12-09T05:34:53.323Z,67.30
2022-12-09T05:36:16.304Z,67.32
2022-12-09T05:37:37.355Z,67.36
2022-12-09T05:38:59.187Z,67.61
2022-12-09T05:40:24.265Z,67.44
2022-12-09T05:41:47.987Z,67.51
2022-12-09T05:43:09.921Z,67.51
2022-12-09T05:44:32.246Z,67.42
2022-12-09T05:45:52.963Z,67.44
2022-12-09T05:47:14.942Z,67.46
2022-12-09T05:48:36.417Z,67.55
2022-12-09T05:50:02.965Z,67.62
2022-12-09T05:51:28.735Z,67.61
2022-12-09T05:52:50.691Z,67.48
2022-12-09T05:54:12.191Z,67.58
2022-12-09T05:55:36.626Z,67.53
2022-12-09T05:57:01.432Z,67.70
2022-12-09T05:58:23.453Z,67.58
2022-12-09T05:59:45.433Z,67.59
2022-12-09T06:01:07.946Z,67.46
2022-12-09T06:02:30.494Z,67.73
2022-12-09T06:03:53.310Z,67.59
2022-12-09T06:05:15.722Z,67.61
2022-12-09T06:06:37.033Z,67.62
2022-12-09T06:08:03.700Z,67.70
2022-12-09T06:09:28.605Z,67.67
2022-12-09T06:10:51.561Z,67.60
2022-12-09T06:12:13.560Z,67.49
2022-12-09T06:13:35.937Z,67.39
2022-12-09T06:14:57.787Z,67.55
2022-12-09T06:16:20.583Z,67.34
2022-12-09T06:17:42.560Z,67.44
2022-12-09T06:19:04.705Z,67.36
2022-12-09T06:20:27.067Z,67.37
2022-12-09T06:21:49.509Z,67.45
2022-12-09T06:23:11.340Z,67.29
2022-12-09T06:24:33.545Z,67.02
2022-12-09T06:25:56.075Z,67.22
2022-12-09T06:27:18.330Z,67.22
2022-12-09T06:28:40.053Z,67.08
2022-12-09T06:30:03.333Z,67.15
2022-12-09T06:31:31.741Z,66.99
2022-12-09T06:32:54.187Z,67.01
2022-12-09T06:34:15.895Z,66.89
2022-12-09T06:35:38.019Z,66.93
2022-12-09T06:37:00.148Z,67.01
2022-12-09T06:38:20.926Z,66.90
2022-12-09T06:39:42.630Z,66.97
2022-12-09T06:41:08.698Z,66.90
2022-12-09T06:42:30.744Z,66.77
2022-12-09T06:43:52.760Z,66.78
2022-12-09T06:45:14.637Z,66.70
2022-12-09T06:46:37.017Z,66.71
2022-12-09T06:47:59.526Z,66.66
2022-12-09T06:49:22.219Z,66.68
2022-12-09T06:50:44.680Z,66.56
2022-12-09T06:52:06.346Z,66.62
2022-12-09T06:53:28.404Z,66.70
2022-12-09T06:54:50.559Z,66.61
2022-12-09T06:56:14.330Z,66.79
2022-12-09T06:57:37.596Z,66.33
2022-12-09T06:58:59.402Z,66.45
2022-12-09T07:00:22.030Z,66.37
2022-12-09T07:01:44.120Z,66.26
2022-12-09T07:03:06.713Z,66.14
2022-12-09T07:04:29.511Z,66.33
2022-12-09T07:05:52.517Z,66.34
2022-12-09T07:07:15.928Z,66.19
2022-12-09T07:08:37.757Z,66.15
2022-12-09T07:09:59.728Z,66.27
2022-12-09T07:11:23.648Z,65.99
2022-12-09T07:12:45.832Z,66.01
2022-12-09T07:14:08.096Z,66.05
2022-12-09T07:15:29.795Z,65.97
2022-12-09T07:16:51.610Z,65.83
2022-12-09T07:18:16.703Z,65.71
2022-12-09T07:19:38.743Z,65.83
2022-12-09T07:21:06.184Z,65.76
2022-12-09T07:22:27.898Z,65.83
2022-12-09T07:23:49.925Z,65.87
2022-12-09T07:25:12.286Z,65.97
2022-12-09T07:26:35.812Z,65.84
2022-12-09T07:27:58.235Z,65.82
2022-12-09T07:29:20.743Z,65.81
2022-12-09T07:30:44.683Z,65.84
2022-12-09T07:32:07.061Z,66.02
2022-12-09T07:33:29.551Z,65.77
2022-12-09T07:34:51.777Z,65.97
2022-12-09T07:36:17.584Z,65.89
2022-12-09T07:37:42.578Z,66.11
2022-12-09T07:39:06.116Z,65.88
2022-12-09T07:40:28.076Z,65.98
2022-12-09T07:42:00.865Z,65.94
2022-12-09T07:43:25.397Z,65.94
2022-12-09T07:44:50.493Z,65.77
2022-12-09T07:46:16.548Z,65.88
2022-12-09T07:47:41.639Z,65.76
2022-12-09T07:49:07.562Z,65.89
2022-12-09T07:50:30.032Z,65.93
2022-12-09T07:51:58.140Z,65.99
2022-12-09T07:53:23.077Z,65.95
2022-12-09T07:54:44.978Z,66.01
2022-12-09T07:56:07.980Z,65.88
2022-12-09T07:57:37.896Z,66.02
2022-12-09T07:59:00.839Z,65.94
2022-12-09T08:00:23.313Z,66.01
2022-12-09T08:01:45.518Z,66.04
2022-12-09T08:03:06.541Z,65.90
2022-12-09T08:04:28.414Z,65.84
2022-12-09T08:05:51.758Z,65.83
2022-12-09T08:07:14.035Z,65.73
2022-12-09T08:08:36.613Z,65.76
2022-12-09T08:09:58.839Z,65.59
2022-12-09T08:11:21.695Z,65.21
2022-12-09T08:12:46.231Z,64.42
2022-12-09T08:14:12.185Z,64.66
2022-12-09T08:15:34.670Z,65.00
2022-12-09T08:16:56.479Z,65.40
2022-12-09T08:18:18.984Z,65.77
2022-12-09T08:19:41.304Z,66.21
2022-12-09T08:21:05.514Z,66.18
2022-12-09T08:22:27.467Z,65.60
2022-12-09T08:23:49.479Z,65.06
2022-12-09T08:25:12.301Z,64.57
2022-12-09T08:26:35.110Z,64.02
2022-12-09T08:28:02.280Z,63.66
2022-12-09T08:29:25.084Z,62.64
2022-12-09T08:30:47.346Z,61.56
2022-12-09T08:32:09.731Z,60.40
2022-12-09T08:33:32.938Z,59.09
2022-12-09T08:34:54.923Z,57.96
2022-12-09T08:36:17.975Z,56.94
2022-12-09T08:37:40.025Z,55.86
2022-12-09T08:39:03.743Z,55.55
2022-12-09T08:40:26.193Z,54.77
2022-12-09T08:41:48.457Z,53.96
2022-12-09T08:43:12.079Z,53.30
2022-12-09T08:44:34.252Z,53.02
2022-12-09T08:45:56.192Z,52.66
2022-12-09T08:47:18.826Z,51.99
2022-12-09T08:48:42.044Z,51.99
2022-12-09T08:50:04.179Z,52.01
2022-12-09T08:51:27.352Z,51.99
2022-12-09T08:52:49.297Z,51.70
2022-12-09T08:54:11.407Z,51.39
2022-12-09T08:55:35.476Z,51.35
2022-12-09T08:56:58.025Z,51.17
2022-12-09T08:58:22.564Z,51.23
2022-12-09T08:59:47.405Z,51.02
2022-12-09T09:01:10.715Z,51.04
2022-12-09T09:02:33.059Z,50.74
2022-12-09T09:03:55.776Z,50.19
2022-12-09T09:05:20.017Z,50.31
2022-12-09T09:06:45.272Z,50.28
2022-12-09T09:08:07.455Z,49.72
2022-12-09T09:09:29.801Z,45.67
2022-12-09T09:10:52.201Z,47.31
2022-12-09T09:12:14.776Z,47.07
2022-12-09T09:13:38.611Z,46.12
2022-12-09T09:15:03.519Z,46.28
2022-12-09T09:16:32.866Z,45.45
2022-12-09T09:17:55.041Z,45.87
2022-12-09T09:19:18.693Z,43.93
2022-12-09T09:20:44.368Z,43.82
2022-12-09T09:22:06.216Z,42.48
2022-12-09T09:23:28.755Z,42.93
2022-12-09T09:24:52.488Z,43.05
2022-12-09T09:26:15.230Z,43.82
2022-12-09T09:27:37.423Z,43.99
2022-12-09T09:29:00.984Z,44.93
2022-12-09T09:30:23.532Z,45.33
2022-12-09T09:31:48.712Z,45.80
2022-12-09T09:33:13.076Z,46.40
2022-12-09T09:34:35.268Z,46.39
2022-12-09T09:35:58.406Z,46.76
2022-12-09T09:37:20.849Z,46.93
2022-12-09T09:38:43.271Z,47.43
2022-12-09T09:40:06.938Z,47.92
2022-12-09T09:41:38.530Z,47.94
2022-12-09T09:43:00.802Z,47.81
2022-12-09T09:44:32.419Z,48.31
2022-12-09T09:45:55.271Z,48.32
2022-12-09T09:47:19.867Z,48.19
2022-12-09T09:48:42.290Z,47.74
2022-12-09T09:50:09.373Z,47.83
2022-12-09T09:51:37.887Z,48.25
2022-12-09T09:53:02.496Z,48.54
2022-12-09T09:54:30.586Z,47.55
2022-12-09T09:55:56.985Z,47.26
2022-12-09T09:57:22.911Z,47.69
2022-12-09T09:58:49.490Z,48.09
2022-12-09T10:00:22.401Z,47.87
2022-12-09T10:01:47.925Z,47.62
2022-12-09T10:03:12.223Z,48.13
2022-12-09T10:04:39.611Z,48.62
2022-12-09T10:06:05.194Z,48.69
2022-12-09T10:07:32.756Z,48.97
2022-12-09T10:08:59.565Z,49.31
2022-12-09T10:10:28.674Z,49.24
2022-12-09T10:11:57.439Z,49.54
2022-12-09T10:13:26.546Z,49.34
2022-12-09T10:14:54.245Z,49.85
2022-12-09T10:16:19.306Z,49.80
2022-12-09T10:17:47.990Z,50.38
2022-12-09T10:19:13.936Z,50.69
2022-12-09T10:20:35.998Z,50.69
2022-12-09T10:21:59.132Z,51.17
2022-12-09T10:23:22.570Z,50.63
2022-12-09T10:24:48.588Z,51.07
2022-12-09T10:26:16.672Z,51.19
2022-12-09T10:27:41.193Z,51.75
2022-12-09T10:29:06.465Z,51.93
2022-12-09T10:30:35.309Z,52.43
2022-12-09T10:32:00.967Z,52.55
2022-12-09T10:33:27.473Z,52.54
2022-12-09T10:34:49.701Z,52.90
2022-12-09T10:36:35.353Z,53.06
2022-12-09T10:38:10.536Z,53.03
2022-12-09T10:39:35.056Z,53.38
2022-12-09T10:41:03.660Z,53.48
2022-12-09T10:42:44.769Z,53.93
2022-12-09T10:44:18.177Z,53.89
2022-12-09T10:46:16.763Z,54.04
2022-12-09T10:47:31.045Z,54.31
2022-12-09T10:48:56.286Z,54.52
2022-12-09T10:50:30.043Z,54.65
2022-12-09T10:51:53.223Z,54.79
2022-12-09T10:53:17.308Z,54.75
2022-12-09T10:54:41.654Z,55.10
2022-12-09T10:56:04.203Z,54.94
2022-12-09T10:57:28.412Z,55.04
2022-12-09T10:58:50.968Z,55.29
2022-12-09T11:00:24.653Z,55.38
2022-12-09T11:01:50.691Z,55.23
2022-12-09T11:03:28.095Z,55.25
2022-12-09T11:04:51.157Z,55.32
2022-12-09T11:06:19.814Z,55.39
2022-12-09T11:07:49.220Z,55.41
2022-12-09T11:09:20.200Z,55.46
2022-12-09T11:10:49.585Z,55.45
2022-12-09T11:12:18.343Z,55.68
2022-12-09T11:13:43.404Z,55.56
2022-12-09T11:15:06.779Z,55.75
2022-12-09T11:16:29.581Z,55.55
2022-12-09T11:17:56.871Z,55.54
2022-12-09T11:19:29.422Z,55.59
2022-12-09T11:20:59.821Z,55.83
2022-12-09T11:22:24.041Z,55.64
2022-12-09T11:24:00.767Z,55.69
2022-12-09T11:25:26.552Z,55.57
2022-12-09T11:26:48.403Z,55.70
2022-12-09T11:28:23.813Z,55.84
2022-12-09T11:29:46.186Z,55.83
2022-12-09T11:31:32.994Z,56.03
2022-12-09T11:33:01.134Z,55.99
2022-12-09T11:34:28.023Z,56.04
2022-12-09T11:35:56.564Z,56.15
2022-12-09T11:37:18.576Z,56.12
2022-12-09T11:38:41.783Z,56.06
2022-12-09T11:40:03.481Z,56.14
2022-12-09T11:41:44.249Z,56.31
2022-12-09T11:43:09.325Z,56.56
2022-12-09T11:44:32.567Z,56.53
2022-12-09T11:45:54.591Z,56.90
2022-12-09T11:47:22.448Z,56.94
2022-12-09T11:48:50.003Z,57.19
2022-12-09T11:50:18.425Z,57.27
2022-12-09T11:51:42.087Z,57.48
2022-12-09T11:53:18.657Z,57.52
2022-12-09T11:54:44.370Z,57.65
2022-12-09T11:56:08.596Z,57.74
2022-12-09T11:57:34.614Z,57.89
2022-12-09T11:58:59.965Z,57.81
2022-12-09T12:00:23.663Z,57.71
2022-12-09T12:01:48.672Z,57.79
2022-12-09T12:03:14.853Z,58.00
2022-12-09T12:04:37.809Z,57.94
2022-12-09T12:06:02.452Z,57.86
2022-12-09T12:07:29.154Z,58.13
2022-12-09T12:08:52.894Z,57.93
2022-12-09T12:10:17.703Z,57.97
2022-12-09T12:11:43.349Z,57.93
2022-12-09T12:13:11.043Z,57.91
2022-12-09T12:14:32.715Z,58.08
2022-12-09T12:16:00.049Z,58.22
2022-12-09T12:17:27.051Z,58.55
2022-12-09T12:18:51.764Z,58.75
2022-12-09T12:20:15.005Z,58.76
2022-12-09T12:21:51.981Z,59.00
2022-12-09T12:23:35.888Z,59.15
2022-12-09T12:25:18.227Z,59.16
2022-12-09T12:26:42.531Z,59.21
2022-12-09T12:28:15.055Z,59.32
2022-12-09T12:29:43.406Z,59.44
2022-12-09T12:31:11.774Z,59.18
2022-12-09T12:32:41.239Z,59.16
2022-12-09T12:34:27.985Z,59.27
2022-12-09T12:35:55.677Z,59.10
2022-12-09T12:37:28.163Z,59.27
2022-12-09T12:38:58.331Z,59.22
2022-12-09T12:40:27.256Z,58.90
2022-12-09T12:41:52.051Z,58.78
2022-12-09T12:43:39.924Z,58.31
2022-12-09T12:45:20.590Z,58.28
2022-12-09T12:46:48.427Z,58.11
2022-12-09T12:48:17.403Z,57.82
2022-12-09T12:50:03.203Z,57.96
2022-12-09T12:51:29.744Z,58.21
2022-12-09T12:52:57.345Z,58.30
2022-12-09T12:54:23.547Z,58.47
2022-12-09T12:55:49.368Z,58.52
2022-12-09T12:57:16.524Z,58.56
2022-12-09T12:58:56.975Z,58.70
2022-12-09T13:00:21.066Z,58.87
2022-12-09T13:01:52.126Z,59.01
2022-12-09T13:03:20.951Z,58.79
2022-12-09T13:04:48.970Z,59.11
2022-12-09T13:06:12.436Z,58.98
2022-12-09T13:07:38.126Z,58.70
2022-12-09T13:09:04.055Z,59.07
2022-12-09T13:10:28.337Z,59.11
2022-12-09T13:12:08.196Z,58.97
2022-12-09T13:13:33.567Z,59.01
2022-12-09T13:14:56.234Z,58.80
2022-12-09T13:16:21.161Z,58.72
2022-12-09T13:17:44.571Z,58.83
2022-12-09T13:19:09.291Z,58.69
2022-12-09T13:20:34.630Z,58.91
2022-12-09T13:21:56.452Z,58.82
2022-12-09T13:23:31.005Z,58.96
2022-12-09T13:25:00.470Z,59.10
2022-12-09T13:26:26.428Z,59.08
2022-12-09T13:27:51.823Z,59.15
2022-12-09T13:29:17.899Z,59.39
2022-12-09T13:30:42.505Z,59.49
2022-12-09T13:32:09.420Z,59.49
2022-12-09T13:33:40.322Z,59.34
2022-12-09T13:35:06.050Z,59.44
2022-12-09T13:36:36.417Z,59.36
2022-12-09T13:37:59.954Z,59.35
2022-12-09T13:39:36.470Z,59.48
2022-12-09T13:40:59.700Z,59.42
2022-12-09T13:42:51.747Z,59.43
2022-12-09T13:44:14.798Z,59.35
2022-12-09T13:45:41.505Z,59.32
2022-12-09T13:47:26.639Z,59.45
2022-12-09T13:48:49.244Z,59.54
2022-12-09T13:50:24.723Z,59.51
2022-12-09T13:51:48.306Z,59.45
2022-12-09T13:53:25.161Z,59.56
2022-12-09T13:54:49.028Z,59.50
2022-12-09T13:56:20.691Z,59.51
2022-12-09T13:57:50.142Z,59.39
2022-12-09T13:59:40.189Z,59.41
2022-12-09T14:01:14.622Z,59.51
2022-12-09T14:02:42.943Z,59.51
2022-12-09T14:04:09.885Z,59.39
2022-12-09T14:05:36.257Z,59.43
2022-12-09T14:07:09.639Z,59.51
2022-12-09T14:08:34.755Z,59.55
2022-12-09T14:09:57.438Z,59.46
2022-12-09T14:11:34.757Z,59.64
2022-12-09T14:13:05.484Z,59.68
2022-12-09T14:14:53.883Z,59.66
2022-12-09T14:16:17.917Z,59.67
2022-12-09T14:18:01.291Z,59.61
2022-12-09T14:19:44.700Z,59.78
2022-12-09T14:21:28.722Z,59.70
2022-12-09T14:23:23.700Z,59.73
2022-12-09T14:24:45.363Z,59.88
2022-12-09T14:26:09.279Z,59.77
2022-12-09T14:27:31.847Z,59.83
2022-12-09T14:28:56.908Z,59.58
2022-12-09T14:30:39.397Z,59.87
2022-12-09T14:32:03.730Z,59.91
2022-12-09T14:33:31.312Z,60.02
2022-12-09T14:35:06.278Z,60.08
2022-12-09T14:36:31.475Z,59.98
2022-12-09T14:38:03.133Z,60.06
2022-12-09T14:39:28.656Z,60.09
2022-12-09T14:40:54.633Z,60.14
2022-12-09T14:42:26.979Z,60.12
2022-12-09T14:44:12.383Z,60.19
2022-12-09T14:45:44.023Z,60.04
2022-12-09T14:47:17.006Z,60.04
2022-12-09T14:48:41.647Z,59.97
2022-12-09T14:50:08.781Z,60.17
2022-12-09T14:51:34.671Z,60.13
2022-12-09T14:52:58.220Z,60.05
2022-12-09T14:54:21.775Z,60.10
2022-12-09T14:55:43.764Z,60.17
2022-12-09T14:57:11.640Z,60.19
2022-12-09T14:58:36.078Z,60.23
2022-12-09T14:59:58.268Z,60.37
2022-12-09T15:01:21.231Z,60.34
2022-12-09T15:02:49.078Z,60.34
2022-12-09T15:04:30.805Z,60.49
2022-12-09T15:05:57.435Z,60.39
2022-12-09T15:07:20.467Z,60.47
2022-12-09T15:08:42.746Z,60.51
2022-12-09T15:10:06.614Z,60.50
2022-12-09T15:11:33.892Z,60.54
2022-12-09T15:12:56.715Z,60.51
2022-12-09T15:14:30.352Z,60.55
2022-12-09T15:15:52.809Z,60.42
2022-12-09T15:17:23.740Z,60.62
2022-12-09T15:18:47.593Z,60.67
2022-12-09T15:20:09.546Z,60.85
2022-12-09T15:21:31.940Z,60.88
2022-12-09T15:22:54.636Z,60.88
2022-12-09T15:24:18.142Z,61.09
2022-12-09T15:25:48.639Z,61.08
2022-12-09T15:27:18.928Z,61.05
2022-12-09T15:28:47.625Z,61.07
2022-12-09T15:30:22.306Z,61.18
2022-12-09T15:31:49.015Z,61.17
2022-12-09T15:33:17.021Z,61.40
2022-12-09T15:34:38.722Z,61.27
2022-12-09T15:36:03.983Z,61.56
2022-12-09T15:37:27.728Z,61.51
2022-12-09T15:38:51.403Z,61.58
2022-12-09T15:40:15.698Z,61.53
2022-12-09T15:41:57.802Z,61.63
2022-12-09T15:43:19.935Z,61.77
2022-12-09T15:45:02.734Z,61.89
2022-12-09T15:46:49.172Z,61.92
2022-12-09T15:48:12.740Z,62.04
2022-12-09T15:49:48.517Z,62.09
2022-12-09T15:51:34.051Z,62.24
2022-12-09T15:52:57.410Z,62.28
2022-12-09T15:54:22.502Z,62.20
2022-12-09T15:55:50.235Z,62.37
2022-12-09T15:57:14.949Z,62.45
2022-12-09T15:58:40.082Z,62.48
2022-12-09T16:00:02.237Z,62.38
2022-12-09T16:01:50.261Z,62.46
2022-12-09T16:05:57.790Z,62.51
2022-12-09T16:07:54.134Z,62.59
2022-12-09T16:09:20.596Z,62.64
2022-12-09T16:11:01.017Z,62.91
2022-12-09T16:12:39.529Z,62.92
2022-12-09T16:14:18.837Z,62.83
2022-12-09T16:15:41.858Z,62.96
2022-12-09T16:17:05.302Z,63.01
2022-12-09T16:18:28.612Z,63.09
2022-12-09T16:19:50.378Z,63.23
2022-12-09T16:21:23.734Z,63.56
2022-12-09T16:22:45.583Z,63.24
2022-12-09T16:24:08.666Z,63.19
2022-12-09T16:25:35.213Z,63.36
2022-12-09T16:26:58.427Z,63.38
2022-12-09T16:28:22.359Z,63.53
2022-12-09T16:29:49.728Z,63.50
2022-12-09T16:31:18.673Z,63.76
2022-12-09T16:32:42.202Z,63.69
2022-12-09T16:34:03.979Z,63.71
2022-12-09T16:35:27.340Z,64.03
2022-12-09T16:36:55.881Z,64.06
2022-12-09T16:38:28.285Z,64.28
2022-12-09T16:39:49.923Z,64.34
2022-12-09T16:41:15.807Z,64.38
2022-12-09T16:42:40.852Z,64.40
2022-12-09T16:44:03.407Z,64.55
2022-12-09T16:45:30.696Z,64.68
2022-12-09T16:47:03.791Z,64.59
2022-12-09T16:48:26.619Z,65.14
2022-12-09T16:49:49.047Z,65.13
2022-12-09T16:51:12.905Z,64.77
2022-12-09T16:52:36.108Z,64.99
2022-12-09T16:53:58.887Z,65.15
2022-12-09T16:55:22.396Z,65.19
2022-12-09T16:56:46.044Z,64.97
2022-12-09T16:58:07.931Z,65.10
2022-12-09T16:59:37.097Z,65.45
2022-12-09T17:01:00.786Z,65.37
2022-12-09T17:02:24.803Z,65.50
2022-12-09T17:03:49.683Z,65.48
2022-12-09T17:05:11.600Z,65.75
2022-12-09T17:06:33.335Z,65.64
2022-12-09T17:07:56.308Z,65.82
2022-12-09T17:09:19.115Z,65.75
2022-12-09T17:10:44.685Z,65.73
2022-12-09T17:12:06.723Z,65.82
2022-12-09T17:13:30.071Z,65.81
2022-12-09T17:15:09.403Z,65.74
2022-12-09T17:16:34.526Z,65.95
2022-12-09T17:18:43.848Z,66.02
2022-12-09T17:20:09.094Z,66.15
2022-12-09T17:21:33.556Z,66.11
2022-12-09T17:22:56.592Z,66.34
2022-12-09T17:24:21.065Z,66.27
2022-12-09T17:25:42.863Z,66.46
2022-12-09T17:27:07.477Z,66.61
2022-12-09T17:28:31.116Z,66.73
2022-12-09T17:30:00.440Z,66.78
2022-12-09T17:31:24.289Z,66.86
2022-12-09T17:32:56.134Z,66.98
2022-12-09T17:34:21.482Z,66.99
2022-12-09T17:35:45.646Z,67.08
2022-12-09T17:37:13.022Z,67.06
2022-12-09T17:38:46.911Z,67.01
2022-12-09T17:40:49.034Z,67.10
2022-12-09T17:42:32.765Z,67.14
2022-12-09T17:43:59.807Z,67.12
2022-12-09T17:45:29.588Z,67.04
2022-12-09T17:46:51.782Z,67.12
2022-12-09T17:48:13.627Z,67.25
2022-12-09T17:49:35.269Z,67.59
2022-12-09T17:51:05.260Z,67.84
2022-12-09T17:52:33.332Z,68.07
2022-12-09T17:53:56.814Z,67.68
2022-12-09T17:55:38.273Z,67.74
2022-12-09T17:57:02.750Z,67.70
2022-12-09T17:58:27.400Z,67.73
2022-12-09T17:59:53.121Z,67.82
2022-12-09T18:01:42.566Z,67.84
2022-12-09T18:05:16.668Z,67.96
2022-12-09T18:07:14.021Z,68.17
2022-12-09T18:10:32.901Z,68.21
2022-12-09T18:11:58.352Z,68.06
2022-12-09T18:13:57.409Z,68.22
2022-12-09T18:17:29.588Z,68.36
2022-12-09T18:21:23.356Z,68.30
2022-12-09T18:23:11.806Z,68.38
2022-12-09T18:26:23.505Z,68.38
2022-12-09T18:27:51.432Z,68.32
2022-12-09T18:32:24.464Z,68.32
2022-12-09T18:34:16.751Z,68.43
2022-12-09T18:38:32.563Z,68.30
2022-12-09T18:39:57.907Z,68.43
2022-12-09T18:41:39.171Z,68.33
2022-12-09T18:43:05.528Z,68.31
2022-12-09T18:44:32.722Z,68.36